Time;durP1;ratioP1;P1;durP2;ratioP2;P2;SDS_P1;SDS_P2;PMS_P1;PMS_P2;Temp;Humidity;BMP_temperature;BMP_pressure;BME280_temperature;BME280_humidity;BME280_pressure;Samples;Min_cycle;Max_cycle;Signal;HPM_P1;HPM_P2
2022/02/19 00:00:23;;;;;;;7.85;3.17;;;;;;;;;;7334993;19;162442;-17
2022/02/19 00:02:55;;;;;;;6.07;3.13;;;;;;;;;;7328674;19;154074;-14
2022/02/19 00:05:27;;;;;;;5.88;2.58;;;;;;;;;;7329301;19;153667;-16
2022/02/19 00:07:59;;;;;;;5.82;2.50;;;;;;;;;;7330418;19;161869;-14
2022/02/19 00:10:30;;;;;;;8.05;2.90;;;;;;;;;;7330117;19;162312;-14
2022/02/19 00:13:04;;;;;;;5.80;3.30;;;;;;;;;;7330445;19;153940;-14
2022/02/19 00:15:36;;;;;;;4.95;2.88;;;;;;;;;;7330562;19;153799;-14
2022/02/19 00:18:10;;;;;;;3.97;2.75;;;;;;;;;;7330200;19;161791;-14
2022/02/19 00:20:41;;;;;;;4.80;2.80;;;;;;;;;;7329870;19;162337;-15
2022/02/19 00:23:13;;;;;;;4.35;2.65;;;;;;;;;;7330186;19;154022;-15
2022/02/19 00:25:44;;;;;;;4.07;2.72;;;;;;;;;;7332012;19;153650;-15
2022/02/19 00:28:19;;;;;;;5.05;2.50;;;;;;;;;;7328759;19;161996;-15
2022/02/19 00:30:50;;;;;;;4.90;2.47;;;;;;;;;;7328338;19;162545;-15
2022/02/19 00:33:24;;;;;;;4.10;2.50;;;;;;;;;;7328674;19;155443;-15
2022/02/19 00:35:55;;;;;;;4.28;2.67;;;;;;;;;;7328893;19;153669;-14
2022/02/19 00:38:30;;;;;;;3.20;2.22;;;;;;;;;;7329679;19;161825;-15
2022/02/19 00:41:03;;;;;;;4.20;2.40;;;;;;;;;;7328204;19;162676;-15
2022/02/19 00:43:38;;;;;;;3.95;2.50;;;;;;;;;;7328625;19;154084;-15
2022/02/19 00:46:10;;;;;;;5.15;2.63;;;;;;;;;;7329258;19;153609;-15
2022/02/19 00:48:41;;;;;;;3.50;2.28;;;;;;;;;;7332277;19;162097;-15
2022/02/19 00:51:20;;;;;;;5.90;2.88;;;;;;;;;;7329130;19;162575;-16
2022/02/19 00:53:52;;;;;;;4.32;2.53;;;;;;;;;;7328143;19;154162;-15
2022/02/19 00:56:24;;;;;;;4.88;2.70;;;;;;;;;;7328634;19;153554;-15
2022/02/19 00:58:58;;;;;;;5.25;2.20;;;;;;;;;;7327794;19;161860;-15
2022/02/19 01:01:30;;;;;;;4.30;2.40;;;;;;;;;;7326393;19;162738;-18
2022/02/19 01:04:04;;;;;;;6.72;2.58;;;;;;;;;;7326931;19;154461;-13
2022/02/19 01:06:36;;;;;;;2.63;2.00;;;;;;;;;;7327481;19;153527;-14
2022/02/19 01:09:08;;;;;;;2.83;1.97;;;;;;;;;;7328850;19;162145;-14
2022/02/19 01:11:40;;;;;;;3.95;2.20;;;;;;;;;;7328281;19;162525;-15
2022/02/19 01:14:15;;;;;;;4.07;2.10;;;;;;;;;;7326035;19;154006;-15
2022/02/19 17:02:25;;;;;;;2.15;1.40;;;;;;;;;;7368792;19;132657;-16
2022/02/19 17:04:57;;;;;;;1.63;1.23;;;;;;;;;;7364698;19;153514;-14
2022/02/19 17:07:31;;;;;;;1.52;1.35;;;;;;;;;;7364482;19;162069;-15
2022/02/19 17:10:02;;;;;;;3.58;1.60;;;;;;;;;;7362890;19;162284;-15
2022/02/19 17:12:34;;;;;;;1.60;0.90;;;;;;;;;;7364863;19;154065;-15
2022/02/19 17:15:07;;;;;;;2.70;1.20;;;;;;;;;;7364535;19;153519;-14
2022/02/19 17:17:41;;;;;;;3.08;1.25;;;;;;;;;;7364134;19;162036;-14
2022/02/19 17:20:14;;;;;;;3.10;1.60;;;;;;;;;;7363963;19;162450;-15
2022/02/19 17:22:48;;;;;;;2.20;1.55;;;;;;;;;;7366212;19;153883;-15
2022/02/19 17:25:22;;;;;;;3.28;1.23;;;;;;;;;;7364543;19;153506;-14
2022/02/19 17:27:53;;;;;;;2.92;1.20;;;;;;;;;;7363967;19;161847;-14
2022/02/19 17:30:25;;;;;;;3.40;1.20;;;;;;;;;;7363075;19;162341;-13
2022/02/19 17:32:59;;;;;;;8.27;1.30;;;;;;;;;;7364127;19;154020;-15
2022/02/19 17:35:30;;;;;;;2.67;1.10;;;;;;;;;;7364117;19;153735;-13
2022/02/19 17:38:02;;;;;;;4.70;1.83;;;;;;;;;;7365812;19;161774;-14
2022/02/19 17:40:35;;;;;;;4.90;1.90;;;;;;;;;;7363435;19;162611;-14
2022/02/19 17:43:07;;;;;;;2.53;1.73;;;;;;;;;;7363879;19;153926;-13
2022/02/19 17:45:41;;;;;;;3.28;1.75;;;;;;;;;;7363770;19;153647;-14
2022/02/19 17:48:15;;;;;;;2.63;1.52;;;;;;;;;;7363088;19;161857;-14
2022/02/19 17:50:46;;;;;;;2.90;1.60;;;;;;;;;;7362175;19;162586;-15
2022/02/19 17:53:18;;;;;;;2.05;1.30;;;;;;;;;;7363492;19;154173;-15
2022/02/19 17:55:51;;;;;;;3.40;1.65;;;;;;;;;;7363342;19;153528;-14
2022/02/19 17:58:23;;;;;;;3.42;1.52;;;;;;;;;;7363044;19;161843;-14
2022/02/19 18:00:54;;;;;;;3.00;1.90;;;;;;;;;;7361618;19;162678;-14
2022/02/19 18:03:29;;;;;;;2.35;1.60;;;;;;;;;;7332411;19;153961;-14
2022/02/19 18:06:00;;;;;;;3.35;1.70;;;;;;;;;;7333241;19;153742;-14
2022/02/19 18:08:32;;;;;;;3.88;2.00;;;;;;;;;;7334094;19;162137;-15
2022/02/19 18:11:03;;;;;;;4.07;1.58;;;;;;;;;;7334931;19;162394;-17
2022/02/19 18:13:35;;;;;;;3.42;1.70;;;;;;;;;;7337828;19;154155;-14
2022/02/19 18:16:07;;;;;;;4.40;1.30;;;;;;;;;;7333495;19;153601;-13
2022/02/19 18:18:41;;;;;;;2.07;1.87;;;;;;;;;;7335819;19;161900;-13
2022/02/19 18:21:12;;;;;;;3.75;1.30;;;;;;;;;;7336897;19;162436;-16
2022/02/19 18:23:44;;;;;;;2.95;1.38;;;;;;;;;;7338037;19;153762;-13
2022/02/19 18:26:16;;;;;;;3.70;1.30;;;;;;;;;;7335409;19;153640;-16
2022/02/19 18:28:48;;;;;;;2.05;1.20;;;;;;;;;;7336034;19;161975;-16
2022/02/19 18:31:20;;;;;;;1.88;1.27;;;;;;;;;;7335945;19;162599;-15
2022/02/19 18:33:54;;;;;;;2.67;1.52;;;;;;;;;;7334356;19;154120;-15
2022/02/19 18:36:25;;;;;;;2.85;1.50;;;;;;;;;;7335916;19;153592;-15
2022/02/19 18:38:56;;;;;;;1.73;1.20;;;;;;;;;;7334590;19;161773;-15
2022/02/19 18:41:28;;;;;;;4.57;1.50;;;;;;;;;;7335439;19;162426;-16
2022/02/19 18:43:59;;;;;;;6.35;2.17;;;;;;;;;;7336077;19;153966;-16
2022/02/19 18:46:31;;;;;;;4.93;1.58;;;;;;;;;;7331558;19;153900;-15
2022/02/19 18:49:05;;;;;;;3.58;2.05;;;;;;;;;;7335758;19;161884;-15
2022/02/19 18:51:39;;;;;;;4.47;2.25;;;;;;;;;;7335523;19;162412;-13
2022/02/19 18:54:11;;;;;;;5.32;2.03;;;;;;;;;;7333797;19;153957;-16
2022/02/19 18:56:42;;;;;;;4.88;1.60;;;;;;;;;;7333497;19;153516;-15
2022/02/19 18:59:16;;;;;;;3.00;1.58;;;;;;;;;;7334934;19;162251;-15
2022/02/19 19:01:50;;;;;;;2.85;1.65;;;;;;;;;;7333970;19;162379;-15
2022/02/19 19:04:24;;;;;;;4.15;1.33;;;;;;;;;;7331757;19;154060;-14
2022/02/19 19:06:56;;;;;;;2.88;1.85;;;;;;;;;;7335737;19;153599;-14
2022/02/19 19:09:28;;;;;;;6.45;1.83;;;;;;;;;;7336070;19;162109;-13
2022/02/19 19:11:59;;;;;;;2.95;1.50;;;;;;;;;;7331885;19;162600;-14
2022/02/19 19:14:32;;;;;;;4.03;1.52;;;;;;;;;;7328335;19;154019;-14
2022/02/19 19:17:04;;;;;;;1.98;1.77;;;;;;;;;;7332541;19;154158;-13
2022/02/19 19:19:37;;;;;;;6.70;1.48;;;;;;;;;;7331816;19;161936;-14
2022/02/19 19:22:10;;;;;;;3.25;1.60;;;;;;;;;;7331840;19;162436;-14
2022/02/19 19:24:41;;;;;;;1.87;1.33;;;;;;;;;;7332060;19;153957;-14
2022/02/19 19:27:13;;;;;;;3.58;1.67;;;;;;;;;;7334008;19;153931;-14
2022/02/19 19:29:50;;;;;;;2.13;1.40;;;;;;;;;;7331834;19;161939;-14
2022/02/19 19:32:21;;;;;;;2.17;1.33;;;;;;;;;;7328768;19;162690;-14
2022/02/19 19:34:55;;;;;;;2.17;1.52;;;;;;;;;;7334712;19;153959;-14
2022/02/19 19:37:26;;;;;;;3.15;1.88;;;;;;;;;;7335533;19;153489;-14
2022/02/19 19:39:57;;;;;;;4.57;1.88;;;;;;;;;;7331420;19;162482;-14
2022/02/19 19:42:29;;;;;;;2.10;1.38;;;;;;;;;;7334826;19;162380;-14
2022/02/19 19:45:00;;;;;;;3.88;2.03;;;;;;;;;;7334901;19;154784;-13
2022/02/19 19:47:32;;;;;;;1.77;1.30;;;;;;;;;;7334398;19;153702;-14
2022/02/19 19:50:07;;;;;;;3.00;1.63;;;;;;;;;;7334949;19;161975;-14
2022/02/19 19:52:38;;;;;;;2.35;1.50;;;;;;;;;;7331368;19;162547;-15
2022/02/19 19:55:13;;;;;;;2.38;1.67;;;;;;;;;;7334156;19;153908;-14
2022/02/19 19:57:47;;;;;;;2.80;1.42;;;;;;;;;;7334430;19;153478;-14
2022/02/19 20:00:19;;;;;;;2.22;1.60;;;;;;;;;;7330095;19;162007;-14
2022/02/19 20:02:51;;;;;;;2.70;1.67;;;;;;;;;;7332732;19;162310;-14
2022/02/19 20:05:25;;;;;;;3.67;1.73;;;;;;;;;;7333927;19;154028;-15
2022/02/19 20:07:57;;;;;;;4.90;1.70;;;;;;;;;;7334160;19;153566;-14
2022/02/19 20:10:29;;;;;;;2.15;1.77;;;;;;;;;;7330649;19;161800;-15
2022/02/19 20:13:00;;;;;;;2.30;1.33;;;;;;;;;;7330911;19;162631;-14
2022/02/19 20:15:33;;;;;;;2.97;1.70;;;;;;;;;;7334288;19;153906;-16
2022/02/19 20:18:08;;;;;;;3.40;1.80;;;;;;;;;;7331469;19;153652;-16
2022/02/19 20:20:42;;;;;;;1.92;1.33;;;;;;;;;;7331625;19;161818;-16
2022/02/19 20:23:17;;;;;;;2.58;1.73;;;;;;;;;;7331991;19;162419;-16
2022/02/19 20:25:49;;;;;;;2.65;1.67;;;;;;;;;;7332272;19;153924;-15
2022/02/19 20:28:22;;;;;;;2.53;1.40;;;;;;;;;;7334274;19;153498;-16
2022/02/19 20:30:54;;;;;;;2.17;1.60;;;;;;;;;;7333094;19;162098;-16
2022/02/19 20:33:28;;;;;;;2.33;1.67;;;;;;;;;;7329191;19;162339;-16
2022/02/19 20:36:02;;;;;;;1.95;1.73;;;;;;;;;;7330396;19;154015;-16
2022/02/19 20:38:37;;;;;;;2.33;1.80;;;;;;;;;;7331277;19;154325;-16
2022/02/19 20:41:08;;;;;;;3.47;1.90;;;;;;;;;;7332636;19;161778;-15
2022/02/19 20:43:41;;;;;;;2.60;1.83;;;;;;;;;;7332017;19;162338;-16
2022/02/19 20:46:14;;;;;;;2.80;1.40;;;;;;;;;;7329921;19;153996;-15
2022/02/19 20:48:46;;;;;;;2.50;1.67;;;;;;;;;;7329699;19;153444;-16
2022/02/19 20:51:20;;;;;;;2.50;1.60;;;;;;;;;;7329512;19;161947;-16
2022/02/19 20:53:55;;;;;;;1.42;1.20;;;;;;;;;;7327386;19;162449;-16
2022/02/19 20:56:28;;;;;;;2.83;1.90;;;;;;;;;;7329753;19;154027;-16
2022/02/19 20:59:06;;;;;;;1.70;1.50;;;;;;;;;;7328463;19;153517;-16
2022/02/19 21:01:39;;;;;;;1.67;1.40;;;;;;;;;;7328667;19;161839;-16
2022/02/19 21:04:15;;;;;;;5.13;1.90;;;;;;;;;;7330840;19;162402;-17
2022/02/19 21:06:52;;;;;;;;;;;;;;;;;;7328343;19;153922;-15
2022/02/19 21:09:24;;;;;;;2.65;1.55;;;;;;;;;;7332884;19;153402;-18
2022/02/19 21:11:55;;;;;;;3.13;1.45;;;;;;;;;;7331613;19;161797;-16
2022/02/19 21:14:27;;;;;;;2.70;1.70;;;;;;;;;;7325804;19;162516;-16
2022/02/19 21:17:02;;;;;;;3.20;2.00;;;;;;;;;;7327644;19;154026;-16
2022/02/19 21:19:34;;;;;;;2.45;1.70;;;;;;;;;;7328713;19;153715;-16
2022/02/19 21:22:09;;;;;;;3.40;1.70;;;;;;;;;;7328336;19;161984;-15
2022/02/19 21:24:41;;;;;;;2.97;2.38;;;;;;;;;;7328001;19;162367;-16
2022/02/19 21:27:13;;;;;;;3.42;2.13;;;;;;;;;;7330247;19;154053;-16
2022/02/19 21:29:47;;;;;;;1.60;1.50;;;;;;;;;;7328095;19;153836;-15
2022/02/19 21:32:21;;;;;;;1.50;1.40;;;;;;;;;;7328067;19;161859;-16
2022/02/19 21:34:53;;;;;;;1.60;1.50;;;;;;;;;;7324367;19;162576;-16
2022/02/19 21:37:29;;;;;;;1.50;1.40;;;;;;;;;;7330199;19;154172;-16
2022/02/19 21:40:05;;;;;;;3.58;1.98;;;;;;;;;;7335121;19;153639;-15
2022/02/19 21:42:37;;;;;;;1.42;1.15;;;;;;;;;;7336915;19;161904;-15
2022/02/19 21:45:11;;;;;;;2.47;1.88;;;;;;;;;;7335524;19;162438;-15
2022/02/19 21:47:44;;;;;;;1.65;1.50;;;;;;;;;;7333895;19;154122;-15
2022/02/19 21:50:15;;;;;;;2.57;1.43;;;;;;;;;;7337233;19;153530;-15
2022/02/19 21:52:49;;;;;;;2.28;1.77;;;;;;;;;;7334527;19;161811;-16
2022/02/19 21:55:21;;;;;;;2.08;1.77;;;;;;;;;;7331929;19;162376;-15
2022/02/19 21:57:52;;;;;;;1.63;1.52;;;;;;;;;;7336604;19;154132;-15
2022/02/19 22:00:23;;;;;;;2.70;1.75;;;;;;;;;;7333244;19;153507;-16
2022/02/19 22:02:55;;;;;;;2.75;1.65;;;;;;;;;;7333900;19;162120;-15
2022/02/19 22:05:28;;;;;;;2.28;1.58;;;;;;;;;;7334020;19;162387;-16
2022/02/19 22:08:06;;;;;;;1.80;1.60;;;;;;;;;;7334408;19;154226;-15
2022/02/19 22:10:37;;;;;;;2.38;1.50;;;;;;;;;;7333051;19;153479;-15
2022/02/19 22:13:12;;;;;;;2.55;2.00;;;;;;;;;;7337198;19;161966;-15
2022/02/19 22:15:43;;;;;;;9.68;7.20;;;;;;;;;;7336193;19;162578;-15
2022/02/19 22:18:17;;;;;;;9.65;6.28;;;;;;;;;;7333999;19;154047;-15
2022/02/19 22:20:48;;;;;;;3.03;2.17;;;;;;;;;;7333931;19;153521;-15
2022/02/19 22:23:22;;;;;;;14.63;10.82;;;;;;;;;;7333430;19;163168;-15
2022/02/19 22:25:53;;;;;;;23.90;15.80;;;;;;;;;;7333192;19;162385;-15
2022/02/19 22:28:25;;;;;;;10.48;7.90;;;;;;;;;;7335944;19;154158;-15
2022/02/19 22:30:56;;;;;;;9.30;6.13;;;;;;;;;;7337300;19;153719;-14
2022/02/19 22:33:28;;;;;;;7.90;5.90;;;;;;;;;;7333122;19;161902;-16
2022/02/19 22:35:59;;;;;;;6.55;5.60;;;;;;;;;;7332262;19;162529;-16
2022/02/19 22:38:33;;;;;;;7.53;5.88;;;;;;;;;;7336927;19;154048;-15
2022/02/19 22:41:04;;;;;;;8.80;6.57;;;;;;;;;;7333790;19;153532;-15
2022/02/19 22:43:36;;;;;;;9.77;6.85;;;;;;;;;;7333569;19;161901;-15
2022/02/19 22:46:07;;;;;;;18.30;12.60;;;;;;;;;;7335710;19;162499;-15
2022/02/19 22:48:39;;;;;;;18.90;14.23;;;;;;;;;;7335291;19;153978;-16
2022/02/19 22:51:10;;;;;;;11.30;8.38;;;;;;;;;;7335427;19;153894;-15
2022/02/19 22:53:45;;;;;;;10.90;8.43;;;;;;;;;;7335934;19;162007;-15
2022/02/19 22:56:23;;;;;;;52.17;38.60;;;;;;;;;;7334654;19;162435;-14
2022/02/19 22:58:54;;;;;;;38.00;26.50;;;;;;;;;;7335617;19;153909;-15
2022/02/19 23:01:42;;;;;;;28.42;20.85;;;;;;;;;;7333531;19;153569;-16
2022/02/19 23:07:00;;;;;;;18.10;14.23;;;;;;;;;;7335053;19;162556;-15
2022/02/19 23:09:35;;;;;;;18.33;12.50;;;;;;;;;;7334655;19;153967;-14
2022/02/19 23:12:08;;;;;;;20.02;14.20;;;;;;;;;;7334778;19;153994;-15
2022/02/19 23:14:40;;;;;;;19.13;13.65;;;;;;;;;;7334024;19;162255;-15
2022/02/19 23:17:13;;;;;;;20.40;14.77;;;;;;;;;;7335824;19;162409;-15
2022/02/19 23:19:45;;;;;;;17.10;13.05;;;;;;;;;;7334053;19;153433;-22
2022/02/19 23:22:16;;;;;;;17.25;12.45;;;;;;;;;;7332767;19;153601;-15
2022/02/19 23:24:52;;;;;;;17.13;13.23;;;;;;;;;;7334187;19;162088;-16
2022/02/19 23:27:23;;;;;;;15.93;12.57;;;;;;;;;;7334826;19;162345;-15
2022/02/19 23:29:55;;;;;;;15.30;13.50;;;;;;;;;;7333921;19;154033;-15
2022/02/19 23:32:30;;;;;;;16.38;11.85;;;;;;;;;;7334475;19;153525;-15
2022/02/19 23:35:02;;;;;;;19.67;12.30;;;;;;;;;;7333556;19;162094;-15
2022/02/19 23:37:36;;;;;;;14.77;11.70;;;;;;;;;;7333799;19;162337;-15
2022/02/19 23:40:12;;;;;;;14.32;11.82;;;;;;;;;;7333766;19;153955;-15
2022/02/19 23:42:44;;;;;;;15.30;11.95;;;;;;;;;;7332650;19;153881;-16
2022/02/19 23:45:15;;;;;;;15.23;12.27;;;;;;;;;;7334827;19;162188;-15
2022/02/19 23:47:47;;;;;;;19.15;12.68;;;;;;;;;;7333777;19;162495;-15
2022/02/19 23:50:18;;;;;;;16.55;12.32;;;;;;;;;;7335292;19;154057;-15
2022/02/19 23:52:49;;;;;;;16.23;11.90;;;;;;;;;;7334135;19;153636;-14
2022/02/19 23:55:23;;;;;;;17.40;11.88;;;;;;;;;;7332684;19;161891;-15
2022/02/19 23:57:54;;;;;;;15.60;12.73;;;;;;;;;;7333838;19;162352;-15
